createdAt,value
2022-10-02T00:00:46.431Z,11.11
2022-10-02T00:03:38.687Z,11.14
2022-10-02T00:06:27.346Z,11.14
2022-10-02T00:09:00.936Z,11.15
2022-10-02T00:11:44.689Z,11.15
2022-10-02T00:14:17.114Z,11.17
2022-10-02T00:16:52.763Z,11.21
2022-10-02T00:19:21.345Z,11.21
2022-10-02T00:22:10.900Z,11.20
2022-10-02T00:24:47.112Z,11.21
2022-10-02T00:27:38.794Z,11.20
2022-10-02T00:30:13.331Z,11.19
2022-10-02T00:33:00.647Z,11.19
2022-10-02T00:35:40.188Z,11.19
2022-10-02T00:38:30.673Z,11.17
2022-10-02T00:41:30.203Z,11.18
2022-10-02T00:44:28.675Z,11.17
2022-10-02T00:46:56.216Z,11.18
2022-10-02T00:49:38.790Z,11.20
2022-10-02T00:52:38.492Z,11.21
2022-10-02T00:55:32.869Z,11.22
2022-10-02T00:58:29.645Z,11.22
2022-10-02T01:01:05.937Z,11.24
2022-10-02T01:03:56.719Z,11.25
2022-10-02T01:06:28.665Z,11.25
2022-10-02T01:08:56.332Z,11.25
2022-10-02T01:11:27.165Z,11.25
2022-10-02T01:13:54.918Z,11.24
2022-10-02T01:16:22.619Z,11.23
2022-10-02T01:18:51.074Z,11.22
2022-10-02T01:21:39.997Z,11.21
2022-10-02T01:24:34.582Z,11.20
2022-10-02T01:27:02.208Z,11.20
2022-10-02T01:29:29.904Z,11.21
2022-10-02T01:31:57.982Z,11.21
2022-10-02T01:34:27.124Z,11.22
2022-10-02T01:36:54.762Z,11.22
2022-10-02T01:39:23.440Z,11.23
2022-10-02T01:41:51.014Z,11.24
2022-10-02T01:44:18.642Z,11.24
2022-10-02T01:47:05.306Z,11.25
2022-10-02T01:49:55.709Z,11.24
2022-10-02T01:52:41.782Z,11.24
2022-10-02T01:55:22.551Z,11.25
2022-10-02T01:58:22.184Z,11.27
2022-10-02T02:01:15.861Z,11.29
2022-10-02T02:03:49.702Z,11.28
2022-10-02T02:06:33.551Z,11.29
2022-10-02T02:09:05.248Z,11.34
2022-10-02T02:11:38.011Z,11.35
2022-10-02T02:14:28.011Z,11.36
2022-10-02T02:17:15.847Z,11.37
2022-10-02T02:19:53.967Z,11.39
2022-10-02T02:22:27.374Z,11.41
2022-10-02T02:25:01.590Z,11.42
2022-10-02T02:27:36.902Z,11.44
2022-10-02T02:30:09.423Z,11.44
2022-10-02T02:32:46.635Z,11.42
2022-10-02T02:35:33.905Z,11.40
2022-10-02T02:38:14.928Z,11.40
2022-10-02T02:40:46.228Z,11.39
2022-10-02T02:43:24.145Z,11.39
2022-10-02T02:45:59.195Z,11.41
2022-10-02T02:48:46.391Z,11.41
2022-10-02T02:51:28.533Z,11.40
2022-10-02T02:54:16.045Z,11.39
2022-10-02T02:56:48.313Z,11.37
2022-10-02T02:59:17.005Z,11.36
2022-10-02T03:01:44.618Z,11.35
2022-10-02T03:04:14.104Z,11.34
2022-10-02T03:06:46.122Z,11.33
2022-10-02T03:09:17.183Z,11.35
2022-10-02T03:12:16.689Z,11.35
2022-10-02T03:15:16.278Z,11.32
2022-10-02T03:17:43.794Z,11.31
2022-10-02T03:20:17.519Z,11.31
2022-10-02T03:23:06.095Z,11.32
2022-10-02T03:25:55.886Z,11.33
2022-10-02T03:28:54.435Z,11.33
2022-10-02T03:31:22.555Z,11.34
2022-10-02T03:33:53.939Z,11.36
2022-10-02T03:36:24.487Z,11.34
2022-10-02T03:39:12.944Z,11.33
2022-10-02T03:41:45.316Z,11.31
2022-10-02T03:44:12.831Z,11.28
2022-10-02T03:46:40.784Z,11.25
2022-10-02T03:49:08.511Z,11.24
2022-10-02T03:51:36.046Z,11.23
2022-10-02T03:54:07.400Z,11.22
2022-10-02T03:56:44.956Z,11.21
2022-10-02T03:59:23.217Z,11.22
2022-10-02T04:01:53.963Z,11.23
2022-10-02T04:04:54.141Z,11.21
2022-10-02T04:07:30.707Z,11.20
2022-10-02T04:10:36.677Z,11.20
2022-10-02T04:13:13.008Z,11.17
2022-10-02T04:16:02.071Z,11.17
2022-10-02T04:19:00.573Z,11.19
2022-10-02T04:21:52.543Z,11.20
2022-10-02T04:24:28.975Z,11.20
2022-10-02T04:26:59.459Z,11.20
2022-10-02T04:29:33.802Z,11.21
2022-10-02T04:32:22.321Z,11.21
2022-10-02T04:34:49.902Z,11.19
2022-10-02T04:37:42.315Z,11.18
2022-10-02T04:40:28.791Z,11.21
2022-10-02T04:43:05.176Z,11.24
2022-10-02T04:46:03.690Z,11.26
2022-10-02T04:48:42.607Z,11.26
2022-10-02T04:51:32.415Z,11.26
2022-10-02T04:54:19.021Z,11.26
2022-10-02T04:56:49.272Z,11.27
2022-10-02T04:59:35.950Z,11.26
2022-10-02T05:02:31.990Z,11.26
2022-10-02T05:05:33.589Z,11.27
2022-10-02T05:08:17.003Z,11.29
2022-10-02T05:11:05.692Z,11.29
2022-10-02T05:13:39.355Z,11.29
2022-10-02T05:16:25.744Z,11.28
2022-10-02T05:19:21.747Z,11.30
2022-10-02T05:22:00.311Z,11.33
2022-10-02T05:24:48.922Z,11.33
2022-10-02T05:27:41.513Z,11.34
2022-10-02T05:30:17.256Z,11.35
2022-10-02T05:33:03.541Z,11.38
2022-10-02T05:35:56.032Z,11.40
2022-10-02T05:38:42.378Z,11.43
2022-10-02T05:41:35.742Z,11.40
2022-10-02T05:44:24.528Z,11.40
2022-10-02T05:47:28.945Z,11.42
2022-10-02T05:50:15.319Z,11.41
2022-10-02T05:52:50.920Z,11.44
2022-10-02T05:55:26.125Z,11.47
2022-10-02T05:58:17.427Z,11.49
2022-10-02T06:00:50.784Z,11.49
2022-10-02T06:03:31.103Z,11.51
2022-10-02T06:06:01.897Z,11.54
2022-10-02T06:08:48.300Z,11.54
2022-10-02T06:11:26.945Z,11.52
2022-10-02T06:14:06.073Z,11.50
2022-10-02T06:16:44.393Z,11.50
2022-10-02T06:19:19.479Z,11.52
2022-10-02T06:21:56.452Z,11.55
2022-10-02T06:24:43.212Z,11.58
2022-10-02T06:27:22.435Z,11.60
2022-10-02T06:29:57.104Z,11.61
2022-10-02T06:32:37.853Z,11.63
2022-10-02T06:35:18.188Z,11.63
2022-10-02T06:37:53.045Z,11.66
2022-10-02T06:40:34.165Z,11.71
2022-10-02T06:43:31.632Z,11.75
2022-10-02T06:46:12.779Z,11.78
2022-10-02T06:48:55.422Z,11.81
2022-10-02T06:51:50.597Z,11.82
2022-10-02T06:54:37.008Z,11.84
2022-10-02T06:57:20.586Z,11.86
2022-10-02T07:00:16.267Z,11.88
2022-10-02T07:02:50.114Z,11.92
2022-10-02T07:05:49.649Z,11.97
2022-10-02T07:08:39.393Z,12.01
2022-10-02T07:11:21.488Z,12.06
2022-10-02T07:14:11.235Z,12.12
2022-10-02T07:17:00.675Z,12.18
2022-10-02T07:19:44.270Z,12.22
2022-10-02T07:22:44.609Z,12.24
2022-10-02T07:25:51.779Z,12.28
2022-10-02T07:28:38.286Z,12.27
2022-10-02T07:31:26.540Z,12.26
2022-10-02T07:34:24.948Z,12.25
2022-10-02T07:37:30.164Z,12.24
2022-10-02T07:40:35.653Z,12.27
2022-10-02T07:43:15.966Z,12.32
2022-10-02T07:46:09.931Z,12.34
2022-10-02T07:48:49.936Z,12.37
2022-10-02T07:51:40.647Z,12.44
2022-10-02T07:54:08.119Z,12.48
2022-10-02T07:56:38.078Z,12.50
2022-10-02T07:59:16.075Z,12.53
2022-10-02T08:01:45.316Z,12.58
2022-10-02T08:04:18.934Z,12.59
2022-10-02T08:06:48.119Z,12.62
2022-10-02T08:09:21.886Z,12.66
2022-10-02T08:11:59.638Z,12.71
2022-10-02T08:14:38.174Z,12.77
2022-10-02T08:17:31.859Z,12.79
2022-10-02T08:20:17.709Z,12.86
2022-10-02T08:22:52.128Z,12.93
2022-10-02T08:25:27.954Z,13.03
2022-10-02T08:28:16.647Z,13.05
2022-10-02T08:30:44.273Z,13.04
2022-10-02T08:33:20.987Z,13.04
2022-10-02T08:36:01.244Z,13.03
2022-10-02T08:38:37.439Z,13.04
2022-10-02T08:41:27.776Z,13.03
2022-10-02T08:44:27.286Z,13.00
2022-10-02T08:47:17.015Z,12.98
2022-10-02T08:50:03.844Z,12.97
2022-10-02T08:52:48.438Z,13.00
2022-10-02T08:55:47.314Z,13.10
2022-10-02T08:58:46.859Z,13.26
2022-10-02T09:01:23.429Z,13.39
2022-10-02T09:04:03.313Z,13.45
2022-10-02T09:06:52.572Z,13.46
2022-10-02T09:09:42.241Z,13.46
2022-10-02T09:12:32.063Z,13.48
2022-10-02T09:15:18.453Z,13.63
2022-10-02T09:18:03.207Z,13.97
2022-10-02T09:21:02.818Z,14.27
2022-10-02T09:24:08.403Z,14.39
2022-10-02T09:27:01.989Z,14.37
2022-10-02T09:29:50.123Z,14.32
2022-10-02T09:32:36.809Z,14.24
2022-10-02T09:35:20.365Z,14.11
2022-10-02T09:38:14.224Z,14.02
2022-10-02T09:41:13.760Z,14.01
2022-10-02T09:44:11.952Z,14.11
2022-10-02T09:46:44.738Z,14.17
2022-10-02T09:49:42.816Z,14.15
2022-10-02T09:52:39.333Z,14.10
2022-10-02T09:55:43.316Z,14.08
2022-10-02T09:58:17.014Z,14.41
2022-10-02T10:00:49.978Z,14.90
2022-10-02T10:03:36.992Z,15.34
2022-10-02T10:06:20.916Z,15.55
2022-10-02T10:09:15.395Z,15.66
2022-10-02T10:11:47.918Z,15.53
2022-10-02T10:14:21.598Z,15.31
2022-10-02T10:17:06.541Z,15.08
2022-10-02T10:19:52.873Z,14.85
2022-10-02T10:22:39.067Z,14.71
2022-10-02T10:25:29.990Z,14.67
2022-10-02T10:28:22.516Z,14.63
2022-10-02T10:31:10.199Z,14.61
2022-10-02T10:33:55.798Z,14.71
2022-10-02T10:37:11.232Z,14.77
2022-10-02T10:40:09.715Z,14.69
2022-10-02T10:43:10.914Z,14.58
2022-10-02T10:46:15.802Z,14.53
2022-10-02T10:49:06.726Z,14.49
2022-10-02T10:52:14.467Z,14.44
2022-10-02T10:54:54.391Z,14.39
2022-10-02T10:57:34.894Z,14.40
2022-10-02T11:00:21.428Z,14.51
2022-10-02T11:02:55.128Z,14.61
2022-10-02T11:05:44.780Z,14.64
2022-10-02T11:08:44.129Z,14.64
2022-10-02T11:11:36.488Z,14.64
2022-10-02T11:14:19.928Z,14.63
2022-10-02T11:17:13.739Z,14.56
2022-10-02T11:19:49.633Z,14.54
2022-10-02T11:22:23.005Z,14.64
2022-10-02T11:25:25.861Z,14.76
2022-10-02T11:28:09.457Z,14.82
2022-10-02T11:30:53.723Z,14.82
2022-10-02T11:33:53.840Z,14.75
2022-10-02T11:36:44.168Z,14.71
2022-10-02T11:39:43.160Z,14.61
2022-10-02T11:42:42.864Z,14.49
2022-10-02T11:45:48.417Z,14.38
2022-10-02T11:48:39.130Z,14.34
2022-10-02T11:51:37.669Z,14.58
2022-10-02T11:54:37.137Z,15.12
2022-10-02T11:57:35.013Z,15.26
2022-10-02T12:00:13.301Z,15.16
2022-10-02T12:03:02.403Z,15.05
2022-10-02T12:05:42.920Z,14.95
2022-10-02T12:08:42.960Z,14.83
2022-10-02T12:11:21.689Z,14.77
2022-10-02T12:14:11.021Z,14.71
2022-10-02T12:17:06.100Z,14.69
2022-10-02T12:20:13.049Z,14.71
2022-10-02T12:23:31.036Z,14.78
2022-10-02T12:26:46.655Z,14.85
2022-10-02T12:29:40.513Z,14.95
2022-10-02T12:32:17.845Z,14.94
2022-10-02T12:34:57.190Z,14.90
2022-10-02T12:37:31.562Z,14.84
2022-10-02T12:40:25.207Z,14.80
2022-10-02T12:43:10.347Z,14.87
2022-10-02T12:45:58.882Z,15.06
2022-10-02T12:48:46.689Z,15.00
2022-10-02T12:51:26.326Z,14.91
2022-10-02T12:53:53.810Z,14.83
2022-10-02T12:56:53.308Z,14.93
2022-10-02T12:59:41.742Z,15.30
2022-10-02T13:02:59.700Z,15.63
2022-10-02T13:05:57.626Z,15.63
2022-10-02T13:08:44.591Z,15.66
2022-10-02T13:11:33.711Z,15.77
2022-10-02T13:14:26.346Z,15.69
2022-10-02T13:17:09.699Z,15.63
2022-10-02T13:20:13.743Z,15.59
2022-10-02T13:23:13.288Z,16.13
2022-10-02T13:25:58.823Z,16.35
2022-10-02T13:28:58.435Z,16.26
2022-10-02T13:31:48.957Z,16.82
2022-10-02T13:34:22.585Z,17.17
2022-10-02T13:37:15.393Z,17.53
2022-10-02T13:40:14.945Z,17.36
2022-10-02T13:43:26.635Z,17.71
2022-10-02T13:46:26.538Z,18.45
2022-10-02T13:49:35.256Z,19.22
2022-10-02T13:52:09.961Z,19.84
2022-10-02T13:55:02.391Z,20.32
2022-10-02T13:57:42.009Z,20.84
2022-10-02T14:00:44.158Z,21.34
2022-10-02T14:03:23.921Z,22.06
2022-10-02T14:06:14.866Z,22.59
2022-10-02T14:09:06.818Z,22.87
2022-10-02T14:11:56.697Z,23.23
2022-10-02T14:14:47.079Z,23.45
2022-10-02T14:17:31.945Z,23.56
2022-10-02T14:20:31.487Z,23.00
2022-10-02T14:23:02.058Z,21.87
2022-10-02T14:25:48.915Z,20.94
2022-10-02T14:28:48.483Z,20.35
2022-10-02T14:31:35.259Z,20.90
2022-10-02T14:34:34.095Z,21.47
2022-10-02T14:37:17.545Z,22.39
2022-10-02T14:39:45.846Z,22.82
2022-10-02T14:42:30.376Z,22.96
2022-10-02T14:45:13.921Z,23.21
2022-10-02T14:48:15.402Z,23.34
2022-10-02T14:51:13.866Z,22.66
2022-10-02T14:53:58.511Z,22.21
2022-10-02T14:57:02.256Z,22.12
2022-10-02T14:59:47.729Z,22.16
2022-10-02T15:02:43.677Z,22.26
2022-10-02T15:05:48.962Z,22.21
2022-10-02T15:08:27.730Z,21.99
2022-10-02T15:10:55.309Z,21.96
2022-10-02T15:13:49.304Z,21.68
2022-10-02T15:16:42.507Z,21.30
2022-10-02T15:19:31.703Z,20.51
2022-10-02T15:22:23.511Z,19.60
2022-10-02T15:25:06.803Z,18.89
2022-10-02T15:27:46.608Z,18.26
2022-10-02T15:30:23.635Z,17.73
2022-10-02T15:33:21.595Z,17.25
2022-10-02T15:36:08.000Z,16.68
2022-10-02T15:39:12.015Z,16.22
2022-10-02T15:42:04.252Z,15.77
2022-10-02T15:45:01.812Z,15.38
2022-10-02T15:47:38.502Z,15.03
2022-10-02T15:50:22.075Z,14.77
2022-10-02T15:53:21.693Z,14.53
2022-10-02T15:56:21.362Z,14.24
2022-10-02T15:59:10.866Z,13.97
2022-10-02T16:01:58.472Z,13.75
2022-10-02T16:04:33.405Z,13.60
2022-10-02T16:07:36.229Z,13.49
2022-10-02T16:10:42.489Z,13.36
2022-10-02T16:13:28.964Z,13.25
2022-10-02T16:16:32.863Z,13.14
2022-10-02T16:19:18.509Z,13.01
2022-10-02T16:22:18.386Z,12.88
2022-10-02T16:24:55.317Z,12.76
2022-10-02T16:27:46.279Z,12.65
2022-10-02T16:30:17.819Z,12.56
2022-10-02T16:33:17.372Z,12.51
2022-10-02T16:35:51.147Z,12.46
2022-10-02T16:38:43.743Z,12.39
2022-10-02T16:41:43.364Z,12.34
2022-10-02T16:44:44.817Z,12.25
2022-10-02T16:47:28.475Z,12.17
2022-10-02T16:50:14.421Z,12.10
2022-10-02T16:53:04.820Z,12.05
2022-10-02T16:55:42.609Z,12.04
2022-10-02T16:58:26.226Z,12.06
2022-10-02T17:00:59.525Z,12.09
2022-10-02T17:03:36.137Z,12.10
2022-10-02T17:06:29.369Z,12.11
2022-10-02T17:09:28.859Z,12.12
2022-10-02T17:12:14.148Z,12.15
2022-10-02T17:15:00.860Z,12.20
2022-10-02T17:17:44.459Z,12.24
2022-10-02T17:20:18.371Z,12.24
2022-10-02T17:23:06.897Z,12.23
2022-10-02T17:25:48.673Z,12.20
2022-10-02T17:28:26.234Z,12.18
2022-10-02T17:31:23.969Z,12.13
2022-10-02T17:33:56.391Z,12.05
2022-10-02T17:36:40.633Z,11.98
2022-10-02T17:39:30.572Z,11.90
2022-10-02T17:42:14.298Z,11.83
2022-10-02T17:44:52.214Z,11.80
2022-10-02T17:47:41.806Z,11.75
2022-10-02T17:50:27.269Z,11.70
2022-10-02T17:53:42.787Z,11.63
2022-10-02T17:56:34.588Z,11.53
2022-10-02T17:59:24.497Z,11.43
2022-10-02T18:02:02.036Z,11.34
2022-10-02T18:05:00.639Z,11.30
2022-10-02T18:08:00.346Z,11.26
2022-10-02T18:10:46.397Z,11.22
2022-10-02T18:13:39.580Z,11.16
2022-10-02T18:16:23.159Z,11.10
2022-10-02T18:19:21.851Z,11.04
2022-10-02T18:22:16.297Z,10.97
2022-10-02T18:24:55.635Z,10.91
2022-10-02T18:27:55.751Z,10.85
2022-10-02T18:30:29.250Z,10.79
2022-10-02T18:33:15.034Z,10.75
2022-10-02T18:36:01.735Z,10.70
2022-10-02T18:38:43.173Z,10.65
2022-10-02T18:41:42.706Z,10.61
2022-10-02T18:44:29.604Z,10.58
2022-10-02T18:47:10.954Z,10.53
2022-10-02T18:50:04.752Z,10.49
2022-10-02T18:52:48.438Z,10.45
2022-10-02T18:55:23.210Z,10.41
2022-10-02T18:58:08.273Z,10.38
2022-10-02T19:01:05.258Z,10.35
2022-10-02T19:03:40.429Z,10.32
2022-10-02T19:06:24.320Z,10.28
2022-10-02T19:09:07.838Z,10.23
2022-10-02T19:11:46.493Z,10.18
2022-10-02T19:14:27.838Z,10.11
2022-10-02T19:17:11.278Z,10.02
2022-10-02T19:19:40.053Z,9.96
2022-10-02T19:22:20.864Z,9.94
2022-10-02T19:24:55.667Z,9.94
2022-10-02T19:27:34.932Z,9.94
2022-10-02T19:30:07.595Z,9.96
2022-10-02T19:32:42.913Z,9.94
2022-10-02T19:35:19.374Z,9.91
2022-10-02T19:37:51.146Z,9.89
2022-10-02T19:40:27.109Z,9.90
2022-10-02T19:43:08.642Z,9.92
2022-10-02T19:45:42.902Z,9.94
2022-10-02T19:48:17.233Z,9.92
2022-10-02T19:50:55.384Z,9.92
2022-10-02T19:53:30.669Z,9.94
2022-10-02T19:56:12.971Z,9.96
2022-10-02T19:58:49.154Z,9.96
2022-10-02T20:01:23.074Z,9.94
2022-10-02T20:03:57.517Z,9.92
2022-10-02T20:06:31.892Z,9.90
2022-10-02T20:09:08.040Z,9.88
2022-10-02T20:11:47.913Z,9.86
2022-10-02T20:14:49.416Z,9.82
2022-10-02T20:17:19.282Z,9.78
2022-10-02T20:19:52.795Z,9.73
2022-10-02T20:22:36.309Z,9.72
2022-10-02T20:25:24.421Z,9.70
2022-10-02T20:28:02.454Z,9.68
2022-10-02T20:30:38.705Z,9.67
2022-10-02T20:33:13.099Z,9.69
2022-10-02T20:35:47.237Z,9.73
2022-10-02T20:38:39.331Z,9.78
2022-10-02T20:41:15.748Z,9.83
2022-10-02T20:43:48.269Z,9.87
2022-10-02T20:46:21.991Z,9.88
2022-10-02T20:49:09.497Z,9.91
2022-10-02T20:51:53.514Z,9.94
2022-10-02T20:54:54.254Z,9.98
2022-10-02T20:58:01.979Z,9.99
2022-10-02T21:00:39.660Z,9.97
2022-10-02T21:03:28.889Z,9.95
2022-10-02T21:06:36.154Z,9.89
2022-10-02T21:09:22.951Z,9.84
2022-10-02T21:12:00.871Z,9.79
2022-10-02T21:14:44.872Z,9.76
2022-10-02T21:17:31.231Z,9.72
2022-10-02T21:20:49.622Z,9.66
2022-10-02T21:23:47.576Z,9.59
2022-10-02T21:26:47.561Z,9.52
2022-10-02T21:29:33.863Z,9.48
2022-10-02T21:32:04.439Z,9.44
2022-10-02T21:34:53.688Z,9.43
2022-10-02T21:37:53.876Z,9.41
2022-10-02T21:41:03.026Z,9.38
2022-10-02T21:43:30.526Z,9.36
2022-10-02T21:46:19.387Z,9.35
2022-10-02T21:49:17.891Z,9.35
2022-10-02T21:52:17.432Z,9.35
2022-10-02T21:55:03.799Z,9.34
2022-10-02T21:58:03.353Z,9.35
2022-10-02T22:00:31.692Z,9.38
2022-10-02T22:03:32.580Z,9.39
2022-10-02T22:06:32.102Z,9.38
2022-10-02T22:09:18.676Z,9.38
2022-10-02T22:12:08.470Z,9.37
2022-10-02T22:14:42.933Z,9.37
2022-10-02T22:17:18.933Z,9.35
2022-10-02T22:20:06.939Z,9.33
2022-10-02T22:22:34.446Z,9.33
2022-10-02T22:25:08.056Z,9.31
2022-10-02T22:27:47.649Z,9.31
2022-10-02T22:30:35.902Z,9.31
2022-10-02T22:33:25.498Z,9.30
2022-10-02T22:36:15.123Z,9.30
2022-10-02T22:38:59.425Z,9.29
2022-10-02T22:41:53.966Z,9.27
2022-10-02T22:44:33.421Z,9.25
2022-10-02T22:47:32.808Z,9.24
2022-10-02T22:50:11.800Z,9.20
2022-10-02T22:53:08.670Z,9.17
2022-10-02T22:55:50.143Z,9.15
2022-10-02T22:58:24.322Z,9.13
2022-10-02T23:00:57.774Z,9.15
2022-10-02T23:03:53.070Z,9.16
2022-10-02T23:06:34.085Z,9.14
2022-10-02T23:09:07.753Z,9.12
2022-10-02T23:11:59.764Z,9.12
2022-10-02T23:14:46.519Z,9.13
2022-10-02T23:17:26.872Z,9.18
2022-10-02T23:20:16.001Z,9.23
2022-10-02T23:22:56.160Z,9.26
2022-10-02T23:25:42.185Z,9.31
2022-10-02T23:28:27.719Z,9.37
2022-10-02T23:31:21.893Z,9.42
2022-10-02T23:34:29.545Z,9.45
2022-10-02T23:37:13.775Z,9.51
2022-10-02T23:39:56.907Z,9.54
2022-10-02T23:42:36.162Z,9.56
2022-10-02T23:45:15.657Z,9.57
2022-10-02T23:47:46.033Z,9.59
2022-10-02T23:50:46.914Z,9.62
2022-10-02T23:53:45.545Z,9.64
2022-10-02T23:56:18.975Z,9.65
2022-10-02T23:58:53.000Z,9.66
